Terminal Aerodrome Forecast
Issued by NWS Topeka, KS

Home | Current Version | Previous Version | Graphics & Text | Print | Product List | Glossary On
Versions: 1 2 3 4 5 6 7 8 9 10 11 12 13 14 15 16 17 18
000
FTUS43 KTOP 191100
TAFTOP
TAF
KTOP 191132Z 1912/2012 VRB04KT 5SM BR OVC070
     FM191900 33010KT P6SM VCTS OVC035CB
     FM192200 32015G24KT P6SM -SHRA VCTS OVC030CB
     FM200200 33016G27KT P6SM OVC060=

USA.gov is the U.S. government's official web portal to all federal, state and local government web resources and services.